sensor_id;sensor_type;location;lat;lon;timestamp;P1;durP1;ratioP1;P2;durP2;ratioP2
52318;SDS011;38258;51.148;14.068;2022-11-14T00:01:47;8.70;;;5.55;;
52318;SDS011;38258;51.148;14.068;2022-11-14T00:04:32;8.95;;;4.30;;
52318;SDS011;38258;51.148;14.068;2022-11-14T00:07:19;11.02;;;5.07;;
52318;SDS011;38258;51.148;14.068;2022-11-14T00:10:05;13.35;;;6.13;;
52318;SDS011;38258;51.148;14.068;2022-11-14T00:12:51;10.13;;;5.82;;
52318;SDS011;38258;51.148;14.068;2022-11-14T00:15:36;7.40;;;4.68;;
52318;SDS011;38258;51.148;14.068;2022-11-14T00:18:21;9.90;;;5.32;;
52318;SDS011;38258;51.148;14.068;2022-11-14T00:21:08;12.32;;;5.80;;
52318;SDS011;38258;51.148;14.068;2022-11-14T00:23:57;12.82;;;5.40;;
52318;SDS011;38258;51.148;14.068;2022-11-14T00:26:43;11.10;;;5.15;;
52318;SDS011;38258;51.148;14.068;2022-11-14T00:29:28;11.65;;;6.72;;
52318;SDS011;38258;51.148;14.068;2022-11-14T00:32:14;12.55;;;5.72;;
52318;SDS011;38258;51.148;14.068;2022-11-14T00:34:59;14.73;;;5.15;;
52318;SDS011;38258;51.148;14.068;2022-11-14T00:37:44;10.07;;;4.93;;
52318;SDS011;38258;51.148;14.068;2022-11-14T00:40:32;9.73;;;4.80;;
52318;SDS011;38258;51.148;14.068;2022-11-14T00:43:17;10.30;;;5.45;;
52318;SDS011;38258;51.148;14.068;2022-11-14T00:46:02;9.30;;;4.63;;
52318;SDS011;38258;51.148;14.068;2022-11-14T00:48:48;8.00;;;4.50;;
52318;SDS011;38258;51.148;14.068;2022-11-14T00:51:34;12.75;;;5.80;;
52318;SDS011;38258;51.148;14.068;2022-11-14T00:54:19;10.35;;;4.32;;
52318;SDS011;38258;51.148;14.068;2022-11-14T00:57:06;10.20;;;5.03;;
52318;SDS011;38258;51.148;14.068;2022-11-14T00:59:51;8.73;;;4.43;;
52318;SDS011;38258;51.148;14.068;2022-11-14T01:02:38;11.35;;;5.47;;
52318;SDS011;38258;51.148;14.068;2022-11-14T01:05:24;9.85;;;5.07;;
52318;SDS011;38258;51.148;14.068;2022-11-14T01:08:11;10.40;;;5.30;;
52318;SDS011;38258;51.148;14.068;2022-11-14T01:10:57;7.40;;;4.05;;
52318;SDS011;38258;51.148;14.068;2022-11-14T01:13:44;10.23;;;4.43;;
52318;SDS011;38258;51.148;14.068;2022-11-14T01:16:30;11.10;;;5.40;;
52318;SDS011;38258;51.148;14.068;2022-11-14T01:19:15;6.32;;;3.03;;
52318;SDS011;38258;51.148;14.068;2022-11-14T01:22:00;9.15;;;4.65;;
52318;SDS011;38258;51.148;14.068;2022-11-14T01:24:46;12.05;;;5.43;;
52318;SDS011;38258;51.148;14.068;2022-11-14T01:27:31;14.70;;;6.22;;
52318;SDS011;38258;51.148;14.068;2022-11-14T01:30:18;6.20;;;3.88;;
52318;SDS011;38258;51.148;14.068;2022-11-14T01:33:03;15.18;;;5.82;;
52318;SDS011;38258;51.148;14.068;2022-11-14T01:35:49;11.02;;;5.63;;
52318;SDS011;38258;51.148;14.068;2022-11-14T01:38:35;10.75;;;5.07;;
52318;SDS011;38258;51.148;14.068;2022-11-14T01:41:21;12.63;;;5.28;;
52318;SDS011;38258;51.148;14.068;2022-11-14T01:44:10;6.95;;;4.85;;
52318;SDS011;38258;51.148;14.068;2022-11-14T01:46:58;13.60;;;6.57;;
52318;SDS011;38258;51.148;14.068;2022-11-14T01:49:44;8.57;;;5.00;;
52318;SDS011;38258;51.148;14.068;2022-11-14T01:52:32;10.13;;;5.05;;
52318;SDS011;38258;51.148;14.068;2022-11-14T01:55:20;11.73;;;5.80;;
52318;SDS011;38258;51.148;14.068;2022-11-14T01:58:05;8.98;;;5.03;;
52318;SDS011;38258;51.148;14.068;2022-11-14T02:00:51;12.02;;;5.88;;
52318;SDS011;38258;51.148;14.068;2022-11-14T02:03:38;8.98;;;5.28;;
52318;SDS011;38258;51.148;14.068;2022-11-14T02:06:26;9.50;;;4.90;;
52318;SDS011;38258;51.148;14.068;2022-11-14T02:09:14;9.68;;;5.03;;
52318;SDS011;38258;51.148;14.068;2022-11-14T02:12:00;8.27;;;4.65;;
52318;SDS011;38258;51.148;14.068;2022-11-14T02:14:51;12.73;;;5.22;;
52318;SDS011;38258;51.148;14.068;2022-11-14T02:17:39;11.00;;;5.68;;
52318;SDS011;38258;51.148;14.068;2022-11-14T02:20:27;9.82;;;5.05;;
52318;SDS011;38258;51.148;14.068;2022-11-14T02:23:23;10.07;;;4.88;;
52318;SDS011;38258;51.148;14.068;2022-11-14T02:26:09;6.88;;;3.55;;
52318;SDS011;38258;51.148;14.068;2022-11-14T02:28:55;6.38;;;3.88;;
52318;SDS011;38258;51.148;14.068;2022-11-14T02:31:40;8.48;;;4.65;;
52318;SDS011;38258;51.148;14.068;2022-11-14T02:34:25;10.23;;;5.20;;
52318;SDS011;38258;51.148;14.068;2022-11-14T02:37:12;9.52;;;5.53;;
52318;SDS011;38258;51.148;14.068;2022-11-14T02:39:57;11.50;;;5.47;;
52318;SDS011;38258;51.148;14.068;2022-11-14T02:42:43;7.93;;;4.57;;
52318;SDS011;38258;51.148;14.068;2022-11-14T02:45:28;11.50;;;4.47;;
52318;SDS011;38258;51.148;14.068;2022-11-14T02:48:13;9.77;;;4.22;;
52318;SDS011;38258;51.148;14.068;2022-11-14T02:50:59;11.70;;;5.68;;
52318;SDS011;38258;51.148;14.068;2022-11-14T02:53:45;8.05;;;4.35;;
52318;SDS011;38258;51.148;14.068;2022-11-14T02:56:31;10.55;;;5.00;;
52318;SDS011;38258;51.148;14.068;2022-11-14T02:59:16;10.55;;;5.63;;
52318;SDS011;38258;51.148;14.068;2022-11-14T03:02:02;10.52;;;5.25;;
52318;SDS011;38258;51.148;14.068;2022-11-14T03:04:48;8.55;;;4.85;;
52318;SDS011;38258;51.148;14.068;2022-11-14T03:07:33;13.40;;;5.65;;
52318;SDS011;38258;51.148;14.068;2022-11-14T03:10:20;9.50;;;5.15;;
52318;SDS011;38258;51.148;14.068;2022-11-14T03:13:06;10.52;;;5.30;;
52318;SDS011;38258;51.148;14.068;2022-11-14T03:15:51;9.15;;;4.50;;
52318;SDS011;38258;51.148;14.068;2022-11-14T03:18:37;10.05;;;5.57;;
52318;SDS011;38258;51.148;14.068;2022-11-14T03:21:22;12.50;;;5.68;;
52318;SDS011;38258;51.148;14.068;2022-11-14T03:24:08;9.27;;;4.78;;
52318;SDS011;38258;51.148;14.068;2022-11-14T03:26:55;12.18;;;6.35;;
52318;SDS011;38258;51.148;14.068;2022-11-14T03:29:40;13.25;;;6.20;;
52318;SDS011;38258;51.148;14.068;2022-11-14T03:32:26;12.70;;;6.07;;
52318;SDS011;38258;51.148;14.068;2022-11-14T03:35:11;10.15;;;5.47;;
52318;SDS011;38258;51.148;14.068;2022-11-14T03:37:56;10.55;;;4.72;;
52318;SDS011;38258;51.148;14.068;2022-11-14T03:40:42;10.43;;;5.45;;
52318;SDS011;38258;51.148;14.068;2022-11-14T03:43:30;5.60;;;3.42;;
52318;SDS011;38258;51.148;14.068;2022-11-14T03:46:17;11.73;;;5.80;;
52318;SDS011;38258;51.148;14.068;2022-11-14T03:49:03;11.77;;;6.22;;
52318;SDS011;38258;51.148;14.068;2022-11-14T03:51:48;9.25;;;4.90;;
52318;SDS011;38258;51.148;14.068;2022-11-14T03:54:34;8.43;;;4.68;;
52318;SDS011;38258;51.148;14.068;2022-11-14T03:57:20;14.00;;;6.40;;
52318;SDS011;38258;51.148;14.068;2022-11-14T04:00:07;12.00;;;5.65;;
52318;SDS011;38258;51.148;14.068;2022-11-14T04:02:55;11.18;;;6.13;;
52318;SDS011;38258;51.148;14.068;2022-11-14T04:05:42;11.45;;;5.13;;
52318;SDS011;38258;51.148;14.068;2022-11-14T04:08:28;13.15;;;6.70;;
52318;SDS011;38258;51.148;14.068;2022-11-14T04:11:13;9.15;;;4.80;;
52318;SDS011;38258;51.148;14.068;2022-11-14T04:13:58;7.88;;;3.80;;
52318;SDS011;38258;51.148;14.068;2022-11-14T04:16:45;11.82;;;6.18;;
52318;SDS011;38258;51.148;14.068;2022-11-14T04:19:30;11.15;;;5.45;;
52318;SDS011;38258;51.148;14.068;2022-11-14T04:22:16;10.10;;;4.97;;
52318;SDS011;38258;51.148;14.068;2022-11-14T04:25:01;10.57;;;4.95;;
52318;SDS011;38258;51.148;14.068;2022-11-14T04:27:46;13.73;;;6.65;;
52318;SDS011;38258;51.148;14.068;2022-11-14T04:30:31;11.00;;;6.38;;
52318;SDS011;38258;51.148;14.068;2022-11-14T04:33:18;9.73;;;4.90;;
52318;SDS011;38258;51.148;14.068;2022-11-14T04:36:04;8.40;;;4.50;;
52318;SDS011;38258;51.148;14.068;2022-11-14T04:38:50;10.20;;;5.88;;
52318;SDS011;38258;51.148;14.068;2022-11-14T04:41:35;12.27;;;6.43;;
52318;SDS011;38258;51.148;14.068;2022-11-14T04:44:20;11.85;;;6.00;;
52318;SDS011;38258;51.148;14.068;2022-11-14T04:47:06;12.55;;;6.20;;
52318;SDS011;38258;51.148;14.068;2022-11-14T04:49:53;13.25;;;6.18;;
52318;SDS011;38258;51.148;14.068;2022-11-14T04:52:38;11.63;;;5.97;;
52318;SDS011;38258;51.148;14.068;2022-11-14T04:55:24;11.90;;;5.63;;
52318;SDS011;38258;51.148;14.068;2022-11-14T04:58:09;14.63;;;6.68;;
52318;SDS011;38258;51.148;14.068;2022-11-14T05:00:55;12.80;;;5.88;;
52318;SDS011;38258;51.148;14.068;2022-11-14T05:03:41;15.95;;;6.97;;
52318;SDS011;38258;51.148;14.068;2022-11-14T05:06:28;13.65;;;6.72;;
52318;SDS011;38258;51.148;14.068;2022-11-14T05:09:13;10.52;;;5.65;;
52318;SDS011;38258;51.148;14.068;2022-11-14T05:11:59;17.02;;;7.47;;
52318;SDS011;38258;51.148;14.068;2022-11-14T05:14:44;14.73;;;6.70;;
52318;SDS011;38258;51.148;14.068;2022-11-14T05:17:30;8.60;;;4.15;;
52318;SDS011;38258;51.148;14.068;2022-11-14T05:20:15;13.73;;;6.75;;
52318;SDS011;38258;51.148;14.068;2022-11-14T05:23:02;16.05;;;7.03;;
52318;SDS011;38258;51.148;14.068;2022-11-14T05:25:56;16.77;;;7.25;;
52318;SDS011;38258;51.148;14.068;2022-11-14T05:28:43;12.63;;;6.57;;
52318;SDS011;38258;51.148;14.068;2022-11-14T05:31:28;14.57;;;7.20;;
52318;SDS011;38258;51.148;14.068;2022-11-14T05:34:14;10.30;;;5.95;;
52318;SDS011;38258;51.148;14.068;2022-11-14T05:36:59;14.25;;;6.97;;
52318;SDS011;38258;51.148;14.068;2022-11-14T05:39:48;11.45;;;6.38;;
52318;SDS011;38258;51.148;14.068;2022-11-14T05:42:33;14.40;;;6.70;;
52318;SDS011;38258;51.148;14.068;2022-11-14T05:45:19;12.90;;;6.45;;
52318;SDS011;38258;51.148;14.068;2022-11-14T05:48:04;13.98;;;6.55;;
52318;SDS011;38258;51.148;14.068;2022-11-14T05:50:52;12.65;;;6.85;;
52318;SDS011;38258;51.148;14.068;2022-11-14T05:53:39;16.75;;;7.53;;
52318;SDS011;38258;51.148;14.068;2022-11-14T05:56:26;16.30;;;7.55;;
52318;SDS011;38258;51.148;14.068;2022-11-14T05:59:11;11.10;;;4.97;;
52318;SDS011;38258;51.148;14.068;2022-11-14T06:01:57;18.30;;;8.43;;
52318;SDS011;38258;51.148;14.068;2022-11-14T06:04:42;15.05;;;7.10;;
52318;SDS011;38258;51.148;14.068;2022-11-14T06:07:28;18.27;;;7.93;;
52318;SDS011;38258;51.148;14.068;2022-11-14T06:10:18;15.38;;;7.75;;
52318;SDS011;38258;51.148;14.068;2022-11-14T06:13:14;16.30;;;7.43;;
52318;SDS011;38258;51.148;14.068;2022-11-14T06:15:59;16.80;;;7.03;;
52318;SDS011;38258;51.148;14.068;2022-11-14T06:18:46;19.40;;;8.25;;
52318;SDS011;38258;51.148;14.068;2022-11-14T06:21:31;19.02;;;8.77;;
52318;SDS011;38258;51.148;14.068;2022-11-14T06:24:17;15.23;;;6.85;;
52318;SDS011;38258;51.148;14.068;2022-11-14T06:27:02;15.80;;;6.75;;
52318;SDS011;38258;51.148;14.068;2022-11-14T06:29:49;16.73;;;7.78;;
52318;SDS011;38258;51.148;14.068;2022-11-14T06:32:34;16.40;;;7.38;;
52318;SDS011;38258;51.148;14.068;2022-11-14T06:35:20;22.13;;;8.68;;
52318;SDS011;38258;51.148;14.068;2022-11-14T06:38:05;14.35;;;7.05;;
52318;SDS011;38258;51.148;14.068;2022-11-14T06:40:50;15.10;;;7.00;;
52318;SDS011;38258;51.148;14.068;2022-11-14T06:43:36;16.67;;;7.68;;
52318;SDS011;38258;51.148;14.068;2022-11-14T06:46:24;17.45;;;8.15;;
52318;SDS011;38258;51.148;14.068;2022-11-14T06:49:10;17.65;;;8.10;;
52318;SDS011;38258;51.148;14.068;2022-11-14T06:51:56;20.35;;;7.80;;
52318;SDS011;38258;51.148;14.068;2022-11-14T06:54:41;19.50;;;7.95;;
52318;SDS011;38258;51.148;14.068;2022-11-14T06:57:26;14.90;;;7.45;;
52318;SDS011;38258;51.148;14.068;2022-11-14T07:00:12;14.23;;;7.65;;
52318;SDS011;38258;51.148;14.068;2022-11-14T07:03:00;23.95;;;8.40;;
52318;SDS011;38258;51.148;14.068;2022-11-14T07:05:45;18.38;;;7.68;;
52318;SDS011;38258;51.148;14.068;2022-11-14T07:08:31;15.65;;;7.82;;
52318;SDS011;38258;51.148;14.068;2022-11-14T07:11:17;20.25;;;8.90;;
52318;SDS011;38258;51.148;14.068;2022-11-14T07:14:07;15.77;;;7.80;;
52318;SDS011;38258;51.148;14.068;2022-11-14T07:16:53;15.23;;;7.75;;
52318;SDS011;38258;51.148;14.068;2022-11-14T07:19:40;13.63;;;5.97;;
52318;SDS011;38258;51.148;14.068;2022-11-14T07:22:25;10.65;;;5.50;;
52318;SDS011;38258;51.148;14.068;2022-11-14T07:25:11;12.80;;;5.90;;
52318;SDS011;38258;51.148;14.068;2022-11-14T07:27:57;10.55;;;6.05;;
52318;SDS011;38258;51.148;14.068;2022-11-14T07:30:42;17.92;;;8.77;;
52318;SDS011;38258;51.148;14.068;2022-11-14T07:33:28;15.93;;;7.13;;
52318;SDS011;38258;51.148;14.068;2022-11-14T07:36:15;19.30;;;7.95;;
52318;SDS011;38258;51.148;14.068;2022-11-14T07:39:00;17.85;;;8.13;;
52318;SDS011;38258;51.148;14.068;2022-11-14T07:41:46;11.15;;;6.10;;
52318;SDS011;38258;51.148;14.068;2022-11-14T07:44:32;13.68;;;6.15;;
52318;SDS011;38258;51.148;14.068;2022-11-14T07:47:17;11.90;;;6.68;;
52318;SDS011;38258;51.148;14.068;2022-11-14T07:50:03;12.98;;;6.90;;
52318;SDS011;38258;51.148;14.068;2022-11-14T07:52:50;13.63;;;7.15;;
52318;SDS011;38258;51.148;14.068;2022-11-14T07:55:36;9.93;;;5.35;;
52318;SDS011;38258;51.148;14.068;2022-11-14T07:58:22;20.58;;;8.18;;
52318;SDS011;38258;51.148;14.068;2022-11-14T08:01:08;16.33;;;8.63;;
52318;SDS011;38258;51.148;14.068;2022-11-14T08:03:56;15.13;;;7.28;;
52318;SDS011;38258;51.148;14.068;2022-11-14T08:06:41;16.15;;;7.20;;
52318;SDS011;38258;51.148;14.068;2022-11-14T08:09:28;14.13;;;7.18;;
52318;SDS011;38258;51.148;14.068;2022-11-14T08:12:13;16.38;;;7.55;;
52318;SDS011;38258;51.148;14.068;2022-11-14T08:14:59;16.85;;;7.82;;
52318;SDS011;38258;51.148;14.068;2022-11-14T08:17:44;18.45;;;7.45;;
52318;SDS011;38258;51.148;14.068;2022-11-14T08:20:30;15.35;;;5.88;;
52318;SDS011;38258;51.148;14.068;2022-11-14T08:23:15;15.48;;;6.95;;
52318;SDS011;38258;51.148;14.068;2022-11-14T08:26:02;13.32;;;7.00;;
52318;SDS011;38258;51.148;14.068;2022-11-14T08:28:50;14.68;;;6.32;;
52318;SDS011;38258;51.148;14.068;2022-11-14T08:31:37;11.82;;;5.93;;
52318;SDS011;38258;51.148;14.068;2022-11-14T08:34:23;16.38;;;7.53;;
52318;SDS011;38258;51.148;14.068;2022-11-14T08:37:09;13.88;;;7.43;;
52318;SDS011;38258;51.148;14.068;2022-11-14T08:39:54;14.77;;;6.07;;
52318;SDS011;38258;51.148;14.068;2022-11-14T08:42:41;15.77;;;6.93;;
52318;SDS011;38258;51.148;14.068;2022-11-14T08:45:27;12.90;;;6.30;;
52318;SDS011;38258;51.148;14.068;2022-11-14T08:48:12;17.63;;;7.13;;
52318;SDS011;38258;51.148;14.068;2022-11-14T08:51:00;6.78;;;3.90;;
52318;SDS011;38258;51.148;14.068;2022-11-14T08:53:47;16.23;;;7.45;;
52318;SDS011;38258;51.148;14.068;2022-11-14T08:56:34;13.70;;;6.68;;
52318;SDS011;38258;51.148;14.068;2022-11-14T08:59:21;18.63;;;8.20;;
52318;SDS011;38258;51.148;14.068;2022-11-14T09:02:08;13.15;;;6.75;;
52318;SDS011;38258;51.148;14.068;2022-11-14T09:04:54;11.45;;;5.75;;
52318;SDS011;38258;51.148;14.068;2022-11-14T09:07:39;12.68;;;7.10;;
52318;SDS011;38258;51.148;14.068;2022-11-14T09:10:25;14.02;;;6.55;;
52318;SDS011;38258;51.148;14.068;2022-11-14T09:13:10;14.43;;;7.68;;
52318;SDS011;38258;51.148;14.068;2022-11-14T09:15:57;15.93;;;7.55;;
52318;SDS011;38258;51.148;14.068;2022-11-14T09:18:42;12.75;;;6.10;;
52318;SDS011;38258;51.148;14.068;2022-11-14T09:21:28;13.48;;;7.07;;
52318;SDS011;38258;51.148;14.068;2022-11-14T09:24:14;14.23;;;6.75;;
52318;SDS011;38258;51.148;14.068;2022-11-14T09:26:59;13.73;;;6.82;;
52318;SDS011;38258;51.148;14.068;2022-11-14T09:29:45;16.77;;;7.80;;
52318;SDS011;38258;51.148;14.068;2022-11-14T09:32:32;19.30;;;8.18;;
52318;SDS011;38258;51.148;14.068;2022-11-14T09:35:17;12.63;;;5.57;;
52318;SDS011;38258;51.148;14.068;2022-11-14T09:38:04;12.50;;;5.85;;
52318;SDS011;38258;51.148;14.068;2022-11-14T09:40:54;16.92;;;8.45;;
52318;SDS011;38258;51.148;14.068;2022-11-14T09:43:56;12.25;;;6.30;;
52318;SDS011;38258;51.148;14.068;2022-11-14T09:46:57;14.65;;;6.13;;
52318;SDS011;38258;51.148;14.068;2022-11-14T09:49:48;14.05;;;7.78;;
52318;SDS011;38258;51.148;14.068;2022-11-14T09:52:37;11.45;;;6.57;;
52318;SDS011;38258;51.148;14.068;2022-11-14T09:55:29;15.88;;;9.07;;
52318;SDS011;38258;51.148;14.068;2022-11-14T09:58:17;16.45;;;9.05;;
52318;SDS011;38258;51.148;14.068;2022-11-14T10:01:04;16.08;;;6.30;;
52318;SDS011;38258;51.148;14.068;2022-11-14T10:03:57;15.93;;;9.05;;
52318;SDS011;38258;51.148;14.068;2022-11-14T10:06:56;15.70;;;7.85;;
52318;SDS011;38258;51.148;14.068;2022-11-14T10:09:51;12.63;;;7.72;;
52318;SDS011;38258;51.148;14.068;2022-11-14T10:12:53;14.88;;;7.15;;
52318;SDS011;38258;51.148;14.068;2022-11-14T10:15:45;13.25;;;6.93;;
52318;SDS011;38258;51.148;14.068;2022-11-14T10:18:40;18.65;;;7.45;;
52318;SDS011;38258;51.148;14.068;2022-11-14T10:21:39;9.70;;;5.53;;
52318;SDS011;38258;51.148;14.068;2022-11-14T10:27:44;15.45;;;8.48;;
52318;SDS011;38258;51.148;14.068;2022-11-14T10:30:38;14.20;;;7.25;;
52318;SDS011;38258;51.148;14.068;2022-11-14T10:33:34;7.93;;;5.28;;
52318;SDS011;38258;51.148;14.068;2022-11-14T10:36:32;16.58;;;9.43;;
52318;SDS011;38258;51.148;14.068;2022-11-14T10:39:30;8.57;;;4.32;;
52318;SDS011;38258;51.148;14.068;2022-11-14T10:42:24;13.90;;;6.57;;
52318;SDS011;38258;51.148;14.068;2022-11-14T10:45:16;13.55;;;6.72;;
52318;SDS011;38258;51.148;14.068;2022-11-14T10:48:15;13.32;;;7.30;;
52318;SDS011;38258;51.148;14.068;2022-11-14T10:51:05;15.88;;;7.88;;
52318;SDS011;38258;51.148;14.068;2022-11-14T10:53:58;15.02;;;7.85;;
52318;SDS011;38258;51.148;14.068;2022-11-14T10:56:49;14.77;;;8.30;;
52318;SDS011;38258;51.148;14.068;2022-11-14T10:59:36;14.73;;;8.40;;
52318;SDS011;38258;51.148;14.068;2022-11-14T11:02:22;11.95;;;7.32;;
52318;SDS011;38258;51.148;14.068;2022-11-14T11:05:10;13.57;;;7.75;;
52318;SDS011;38258;51.148;14.068;2022-11-14T11:07:59;12.93;;;7.15;;
52318;SDS011;38258;51.148;14.068;2022-11-14T11:11:02;16.63;;;10.15;;
52318;SDS011;38258;51.148;14.068;2022-11-14T11:14:13;12.23;;;6.55;;
52318;SDS011;38258;51.148;14.068;2022-11-14T11:20:32;15.98;;;8.68;;
52318;SDS011;38258;51.148;14.068;2022-11-14T11:23:19;12.88;;;5.93;;
52318;SDS011;38258;51.148;14.068;2022-11-14T11:26:15;15.65;;;7.15;;
52318;SDS011;38258;51.148;14.068;2022-11-14T11:29:04;14.20;;;7.57;;
52318;SDS011;38258;51.148;14.068;2022-11-14T11:31:58;16.90;;;7.13;;
52318;SDS011;38258;51.148;14.068;2022-11-14T11:34:43;15.43;;;7.75;;
52318;SDS011;38258;51.148;14.068;2022-11-14T11:37:31;17.30;;;8.75;;
52318;SDS011;38258;51.148;14.068;2022-11-14T11:40:20;11.60;;;6.53;;
52318;SDS011;38258;51.148;14.068;2022-11-14T11:43:09;14.45;;;8.00;;
52318;SDS011;38258;51.148;14.068;2022-11-14T11:46:02;13.52;;;6.85;;
52318;SDS011;38258;51.148;14.068;2022-11-14T11:48:51;17.38;;;7.90;;
52318;SDS011;38258;51.148;14.068;2022-11-14T11:51:41;10.88;;;5.88;;
52318;SDS011;38258;51.148;14.068;2022-11-14T11:54:32;13.82;;;6.32;;
52318;SDS011;38258;51.148;14.068;2022-11-14T11:57:30;13.13;;;7.97;;
52318;SDS011;38258;51.148;14.068;2022-11-14T12:00:19;15.02;;;6.40;;
52318;SDS011;38258;51.148;14.068;2022-11-14T12:03:08;14.32;;;7.03;;
52318;SDS011;38258;51.148;14.068;2022-11-14T12:06:00;14.45;;;7.78;;
52318;SDS011;38258;51.148;14.068;2022-11-14T12:08:56;13.38;;;6.38;;
52318;SDS011;38258;51.148;14.068;2022-11-14T12:11:53;16.50;;;7.22;;
52318;SDS011;38258;51.148;14.068;2022-11-14T12:14:47;11.65;;;6.50;;
52318;SDS011;38258;51.148;14.068;2022-11-14T12:17:53;11.95;;;6.38;;
52318;SDS011;38258;51.148;14.068;2022-11-14T12:21:00;15.50;;;7.63;;
52318;SDS011;38258;51.148;14.068;2022-11-14T12:24:09;16.33;;;9.43;;
52318;SDS011;38258;51.148;14.068;2022-11-14T12:27:22;14.30;;;6.80;;
52318;SDS011;38258;51.148;14.068;2022-11-14T12:30:20;11.80;;;6.45;;
52318;SDS011;38258;51.148;14.068;2022-11-14T12:33:07;17.23;;;8.10;;
52318;SDS011;38258;51.148;14.068;2022-11-14T12:35:56;12.75;;;7.20;;
52318;SDS011;38258;51.148;14.068;2022-11-14T12:38:45;8.40;;;4.93;;
52318;SDS011;38258;51.148;14.068;2022-11-14T12:41:33;12.43;;;6.70;;
52318;SDS011;38258;51.148;14.068;2022-11-14T12:44:32;12.75;;;6.90;;
52318;SDS011;38258;51.148;14.068;2022-11-14T12:47:20;13.38;;;7.45;;
52318;SDS011;38258;51.148;14.068;2022-11-14T12:50:29;14.43;;;7.82;;
52318;SDS011;38258;51.148;14.068;2022-11-14T12:53:39;12.77;;;6.55;;
52318;SDS011;38258;51.148;14.068;2022-11-14T12:59:39;11.20;;;6.97;;
52318;SDS011;38258;51.148;14.068;2022-11-14T13:05:58;11.80;;;5.68;;
52318;SDS011;38258;51.148;14.068;2022-11-14T13:08:51;14.88;;;7.47;;
52318;SDS011;38258;51.148;14.068;2022-11-14T13:11:54;16.15;;;8.23;;
52318;SDS011;38258;51.148;14.068;2022-11-14T13:14:59;14.73;;;7.72;;
52318;SDS011;38258;51.148;14.068;2022-11-14T13:18:24;17.33;;;8.80;;
52318;SDS011;38258;51.148;14.068;2022-11-14T13:21:29;15.30;;;6.35;;
52318;SDS011;38258;51.148;14.068;2022-11-14T13:27:48;17.85;;;8.52;;
52318;SDS011;38258;51.148;14.068;2022-11-14T13:33:50;14.02;;;7.00;;
52318;SDS011;38258;51.148;14.068;2022-11-14T13:36:43;17.45;;;8.85;;
52318;SDS011;38258;51.148;14.068;2022-11-14T13:39:35;19.67;;;8.90;;
52318;SDS011;38258;51.148;14.068;2022-11-14T13:42:31;17.73;;;8.35;;
52318;SDS011;38258;51.148;14.068;2022-11-14T13:45:37;17.77;;;8.68;;
52318;SDS011;38258;51.148;14.068;2022-11-14T13:48:43;17.38;;;8.70;;
52318;SDS011;38258;51.148;14.068;2022-11-14T13:51:39;17.15;;;7.95;;
52318;SDS011;38258;51.148;14.068;2022-11-14T13:54:26;17.02;;;8.45;;
52318;SDS011;38258;51.148;14.068;2022-11-14T13:57:13;18.67;;;8.82;;
52318;SDS011;38258;51.148;14.068;2022-11-14T14:00:07;16.73;;;8.55;;
52318;SDS011;38258;51.148;14.068;2022-11-14T14:05:59;12.68;;;6.68;;
52318;SDS011;38258;51.148;14.068;2022-11-14T14:09:08;13.98;;;7.70;;
52318;SDS011;38258;51.148;14.068;2022-11-14T14:12:04;18.15;;;8.98;;
52318;SDS011;38258;51.148;14.068;2022-11-14T14:15:10;19.60;;;9.70;;
52318;SDS011;38258;51.148;14.068;2022-11-14T14:18:05;19.02;;;9.35;;
52318;SDS011;38258;51.148;14.068;2022-11-14T14:21:01;16.65;;;8.68;;
52318;SDS011;38258;51.148;14.068;2022-11-14T14:23:54;19.95;;;9.60;;
52318;SDS011;38258;51.148;14.068;2022-11-14T14:26:52;19.58;;;9.48;;
52318;SDS011;38258;51.148;14.068;2022-11-14T14:29:50;21.05;;;9.13;;
52318;SDS011;38258;51.148;14.068;2022-11-14T14:35:55;16.10;;;9.20;;
52318;SDS011;38258;51.148;14.068;2022-11-14T14:38:42;17.10;;;8.90;;
52318;SDS011;38258;51.148;14.068;2022-11-14T14:41:29;18.63;;;9.43;;
52318;SDS011;38258;51.148;14.068;2022-11-14T14:44:17;16.05;;;8.90;;
52318;SDS011;38258;51.148;14.068;2022-11-14T14:47:15;22.35;;;9.88;;
52318;SDS011;38258;51.148;14.068;2022-11-14T14:50:02;21.67;;;10.25;;
52318;SDS011;38258;51.148;14.068;2022-11-14T14:52:54;19.75;;;8.55;;
52318;SDS011;38258;51.148;14.068;2022-11-14T14:55:49;20.80;;;10.10;;
52318;SDS011;38258;51.148;14.068;2022-11-14T14:58:35;17.23;;;9.30;;
52318;SDS011;38258;51.148;14.068;2022-11-14T15:01:22;23.55;;;9.70;;
52318;SDS011;38258;51.148;14.068;2022-11-14T15:04:11;16.65;;;8.23;;
52318;SDS011;38258;51.148;14.068;2022-11-14T15:06:59;23.27;;;9.88;;
52318;SDS011;38258;51.148;14.068;2022-11-14T15:09:50;22.55;;;10.27;;
52318;SDS011;38258;51.148;14.068;2022-11-14T15:12:38;22.15;;;10.57;;
52318;SDS011;38258;51.148;14.068;2022-11-14T15:15:26;24.60;;;11.55;;
52318;SDS011;38258;51.148;14.068;2022-11-14T15:18:15;18.73;;;8.38;;
52318;SDS011;38258;51.148;14.068;2022-11-14T15:21:07;28.40;;;12.20;;
52318;SDS011;38258;51.148;14.068;2022-11-14T15:23:57;15.23;;;7.70;;
52318;SDS011;38258;51.148;14.068;2022-11-14T15:26:44;19.77;;;8.90;;
52318;SDS011;38258;51.148;14.068;2022-11-14T15:29:33;23.20;;;11.27;;
52318;SDS011;38258;51.148;14.068;2022-11-14T15:32:19;19.10;;;9.13;;
52318;SDS011;38258;51.148;14.068;2022-11-14T15:35:07;20.13;;;9.23;;
52318;SDS011;38258;51.148;14.068;2022-11-14T15:38:06;21.90;;;9.68;;
52318;SDS011;38258;51.148;14.068;2022-11-14T15:41:09;19.00;;;9.70;;
52318;SDS011;38258;51.148;14.068;2022-11-14T15:44:04;20.13;;;9.35;;
52318;SDS011;38258;51.148;14.068;2022-11-14T15:46:51;20.25;;;9.63;;
52318;SDS011;38258;51.148;14.068;2022-11-14T15:49:36;18.67;;;9.05;;
52318;SDS011;38258;51.148;14.068;2022-11-14T15:52:22;20.98;;;10.02;;
52318;SDS011;38258;51.148;14.068;2022-11-14T15:55:11;23.05;;;10.32;;
52318;SDS011;38258;51.148;14.068;2022-11-14T15:57:59;22.33;;;9.75;;
52318;SDS011;38258;51.148;14.068;2022-11-14T16:00:45;22.73;;;9.43;;
52318;SDS011;38258;51.148;14.068;2022-11-14T16:03:34;24.27;;;10.60;;
52318;SDS011;38258;51.148;14.068;2022-11-14T16:06:19;15.38;;;8.57;;
52318;SDS011;38258;51.148;14.068;2022-11-14T16:09:05;19.85;;;9.90;;
52318;SDS011;38258;51.148;14.068;2022-11-14T16:11:56;24.10;;;10.73;;
52318;SDS011;38258;51.148;14.068;2022-11-14T16:14:41;23.52;;;11.93;;
52318;SDS011;38258;51.148;14.068;2022-11-14T16:17:27;19.35;;;10.20;;
52318;SDS011;38258;51.148;14.068;2022-11-14T16:20:21;21.23;;;10.20;;
52318;SDS011;38258;51.148;14.068;2022-11-14T16:23:08;24.75;;;11.07;;
52318;SDS011;38258;51.148;14.068;2022-11-14T16:25:56;23.58;;;11.60;;
52318;SDS011;38258;51.148;14.068;2022-11-14T16:28:41;18.05;;;8.88;;
52318;SDS011;38258;51.148;14.068;2022-11-14T16:31:27;18.73;;;8.73;;
52318;SDS011;38258;51.148;14.068;2022-11-14T16:34:14;23.83;;;11.10;;
52318;SDS011;38258;51.148;14.068;2022-11-14T16:37:03;26.63;;;11.88;;
52318;SDS011;38258;51.148;14.068;2022-11-14T16:39:49;25.45;;;11.25;;
52318;SDS011;38258;51.148;14.068;2022-11-14T16:42:35;23.80;;;11.15;;
52318;SDS011;38258;51.148;14.068;2022-11-14T16:45:21;24.30;;;11.57;;
52318;SDS011;38258;51.148;14.068;2022-11-14T16:48:07;21.45;;;10.23;;
52318;SDS011;38258;51.148;14.068;2022-11-14T16:50:52;24.20;;;10.25;;
52318;SDS011;38258;51.148;14.068;2022-11-14T16:53:39;13.93;;;8.60;;
52318;SDS011;38258;51.148;14.068;2022-11-14T16:56:25;30.85;;;13.90;;